Tiempo atmosférico en la estación meteorológica de Calasparra, Murcia (394 m.)



Fecha
DESCASC
Temp. máxima en grados centígrados (hora)
DESCASC
Temp. mínima en grados centígrados (hora)
DESCASC
Temp. media en grados centígrados
DESCASC
Racha de viento máxima en m/sg (hora)
DESCASC
Velocidad máxima media en intervalos de 10 minutos(hora)
DESCASC
Precipitaciones diarias en mm
DESCASC
Precipitaciones de 00:00 a 06:00 en mm
DESCASC
Precipitaciones de 06:00 a 12:00 en mm
DESCASC
Precipitaciones de 12:00 a 18:00 en mm
DESCASC
Precipitaciones de 18:00 a 24:00 en mm
DESCASC
16-01-2020 17 (15:10) 1 (08:30) 9 5 (18:10) 3.61 (18:10) 0 0 0 0 0
15-01-2020 16.9 (15:40) -0.2 (07:50) 8.3 4.17 (17:20) 2.78 (22:40) 0 0 0 0 0
14-01-2020 14.6 (16:20) -1.6 (08:10) 6.5 3.06 (01:30) 2.22 (23:50) 0 0 0 0 0
13-01-2020 13.9 (15:50) -1.6 (08:30) 6.1 3.33 (21:20) 2.22 (21:20) 0 0 0 0 0
12-01-2020 16 (14:50) -0.7 (-00:0) 7.7 5.56 (16:40) 3.33 (15:30) 0 0 0 0 0
11-01-2020 14.9 (16:20) 3.7 (00:00) 9.3 5 (13:50) 2.5 (13:40) 0 0 0 0 0
10-01-2020 14 (15:00) 1.6 (00:00) 7.8 9.44 (13:40) 5.28 (13:20) 0 0 0 0 0
09-01-2020 13.8 (15:50) 2 (00:00) 7.9 4.17 (23:30) 2.78 (23:20) 0 0 0 0 0
08-01-2020 16.1 (14:40) 0.4 (00:00) 8.3 5.28 (17:10) 3.33 (16:40) 0 0 0 0 0
07-01-2020 16.8 (15:40) 0.4 (00:00) 8.6 3.33 (17:50) 2.22 (04:20) 0 0 0 0 0
06-01-2020 13.7 (15:40) 0.2 (00:00) 6.9 2.78 (15:00) 2.22 (03:10) 0 0 0 0 0
05-01-2020 15.2 (16:00) 0.7 (00:00) 7.9 3.61 (00:40) 2.78 (00:40) 0 0 0 0 0
04-01-2020 13.6 (15:30) 1.8 (00:00) 7.7 4.17 (00:30) 2.78 (00:30) 0 0 0 0 0
03-01-2020 17 (15:30) 0.1 (00:00) 8.6 5.28 (21:00) 3.33 (21:00) 0 0 0 0 0
02-01-2020 7.9 (15:50) 2.3 (00:00) 5.1 2.5 (04:00) 2.22 (09:00) 0 0 0 0 0
01-01-2020 15.3 (15:50) 2.8 (00:00) 9.1 3.06 (05:30) 2.22 (00:20) 0 0 0 0 0
31-12-2019 9.3 (16:20) 1.1 (00:00) 5.2 3.06 (12:00) 2.22 (19:20) 0 0 0 0 0
30-12-2019 -- (--) -- (--) -- -- (--) -- (--) -- 0 0 -- 0
29-12-2019 13.9 (15:20) 4.9 (00:00) 9.4 3.89 (05:00) 2.5 (05:00) 0 0 0 0 0
28-12-2019 15.4 (16:00) 2.5 (00:00) 8.9 5 (15:10) 3.06 (17:20) 0 0 0 0 0
27-12-2019 17.5 (15:20) 5.4 (00:00) 11.5 3.06 (14:10) 2.22 (00:30) 0 0 0 0 0
26-12-2019 21.1 (15:30) 4.9 (00:00) 13 4.44 (21:30) 3.33 (18:40) 0 0 0 0 0
25-12-2019 19.1 (16:10) 3.6 (00:00) 11.4 3.06 (20:40) 2.22 (03:20) 0 0 0 0 0
24-12-2019 19.6 (15:30) 4.9 (00:00) 12.3 3.33 (21:40) 2.5 (01:20) 0 0 0 0 0
23-12-2019 19.7 (16:10) 7.4 (00:00) 13.6 5.28 (01:50) 3.33 (01:50) 0 0 0 0 0
22-12-2019 20.4 (14:00) 13.8 (00:00) 17.1 16.11 (00:30) 6.67 (00:30) 0 0 0 0 0
21-12-2019 23.5 (15:20) 12.2 (00:00) 17.8 19.17 (22:50) 9.17 (22:50) 0 0 0 0 0
20-12-2019 19.6 (08:40) 12.5 (00:00) 16.1 15.83 (05:40) 8.61 (05:30) 0.2 0 0 0.2 0
19-12-2019 15.9 (23:50) 3 (06:30) 9.4 9.17 (23:40) 6.11 (23:40) 0 0 0 0 0

Gráficas

Temp. máximas Temp. mínimas Temp. medias Precipitaciones Rachas de viento máximas Velocidades máximas media en intervalos de 10 minutos

Datos horarios

Fecha y hora oficial Temperatura (ºC) Velocidad del viento (km/h) Dirección del viento Racha (km/h) Dirección de racha Precipitación (mm) Presión (hPa) Tendencia (hPa) Humedad (%)
2020-01-17 23:00:00 8.4 7 Sur 10 Sudeste 0 -- -- 67
2020-01-17 22:00:00 9.7 4 Sur 11 Sudoeste 0 -- -- 63
2020-01-17 21:00:00 9.9 9 Oeste 16 Oeste 0 -- -- 64
2020-01-17 20:00:00 12.7 8 Oeste 12 Oeste 0 -- -- 54
2020-01-17 19:00:00 12.2 5 Noroeste 13 Norte 0 -- -- 56
2020-01-17 18:00:00 14.5 5 Noroeste 19 Noroeste 0 -- -- 49
2020-01-17 17:00:00 15.7 12 Noroeste 40 Noroeste 0 -- -- 45
2020-01-17 16:00:00 16.7 16 Noroeste 34 Noroeste 0 -- -- 44
2020-01-17 15:00:00 16.4 18 Noroeste 32 Noroeste 0 -- -- 45
2020-01-17 14:00:00 16.6 18 Noroeste 31 Noroeste 0 -- -- 45
2020-01-17 13:00:00 16.4 4 Norte 9 Noroeste 0 -- -- 42
2020-01-17 12:00:00 12.3 3 Noroeste 12 Noroeste 0 -- -- 50
2020-01-17 11:00:00 8.2 4 Norte 9 Noroeste 0 -- -- 62
2020-01-17 10:00:00 5.9 2 Sudeste 10 Sur 0 -- -- 68
2020-01-17 09:00:00 2.5 8 Sudoeste 14 Noroeste 0 -- -- 80
2020-01-17 08:00:00 2 9 Sur 14 Sur 0 -- -- 79
2020-01-17 07:00:00 2.6 4 Sur 14 Oeste 0 -- -- 78
2020-01-17 06:00:00 2.1 5 Sur 13 Sur 0 -- -- 78
2020-01-17 05:00:00 3.6 6 Sur 10 Sudoeste 0 -- -- 74
2020-01-17 04:00:00 3.4 4 Oeste 9 Oeste 0 -- -- 75
2020-01-17 03:00:00 4.1 5 Sudoeste 10 Sudoeste 0 -- -- 72
2020-01-17 02:00:00 5.1 4 Sudoeste 11 Sudoeste 0 -- -- 69
2020-01-17 01:00:00 5.1 4 Sur 9 Sudoeste 0 -- -- 71
2020-01-17 00:00:00 6.2 6 Sudoeste 10 Sur 0 -- -- 68
2020-01-16 23:00:00 6.7 5 Sudoeste 10 Sur 0 -- -- 68
2020-01-16 22:00:00 7.4 7 Sur 16 Sur 0 -- -- 68
2020-01-16 21:00:00 8.6 5 Sur 10 Sur 0 -- -- 65
2020-01-16 20:00:00 11.1 7 Sur 11 Sur 0 -- -- 56
2020-01-16 19:00:00 12.6 9 Sur 18 Sudeste 0 -- -- 51
2020-01-16 18:00:00 14.6 12 Sudeste 17 Sudeste 0 -- -- 47
2020-01-16 17:00:00 15.5 5 Nordeste 16 Nordeste 0 -- -- 47
2020-01-16 16:00:00 16.7 8 Nordeste 13 Nordeste 0 -- -- 44
2020-01-16 15:00:00 16.9 5 Este 7 Este 0 -- -- 40
2020-01-16 14:00:00 15.8 3 Este 8 Este 0 -- -- 38
2020-01-16 13:00:00 13.6 4 Nordeste 9 Este 0 -- -- 43
2020-01-16 12:00:00 11.6 2 Nordeste 5 Este 0 -- -- 46
2020-01-16 11:00:00 8.3 2 Este 6 Sudeste 0 -- -- 59
2020-01-16 10:00:00 4.8 0 Calma 6 Sur 0 -- -- 69
2020-01-16 09:00:00 2.1 2 Oeste 8 Sur 0 -- -- 77
2020-01-16 08:00:00 1.4 6 Sudoeste 10 Sur 0 -- -- 77
2020-01-16 07:00:00 1.6 7 Sur 9 Sudoeste 0 -- -- 75
2020-01-16 06:00:00 3.1 2 Oeste 8 Sudoeste 0 -- -- 71
2020-01-16 05:00:00 3.7 4 Sudoeste 10 Sur 0 -- -- 70
2020-01-16 04:00:00 3.7 3 Sudoeste 8 Sudoeste 0 -- -- 70
2020-01-16 03:00:00 4 6 Sudoeste 9 Sur 0 -- -- 70
2020-01-16 02:00:00 4.2 8 Sudoeste 10 Sudoeste 0 -- -- 71
2020-01-16 01:00:00 5 6 Sur 9 Sudoeste 0 -- -- 68
2020-01-16 00:00:00 5.8 2 Sudoeste 7 Sur 0 -- -- 67
2020-01-15 23:00:00 6.6 5 Sudoeste 13 Sur 0 -- -- 67
2020-01-15 22:00:00 6.2 7 Sur 10 Sur 0 -- -- 71
2020-01-15 21:00:00 7.6 8 Sur 12 Sur 0 -- -- 67
2020-01-15 20:00:00 9.6 7 Sur 10 Sudoeste 0 -- -- 60
2020-01-15 19:00:00 11.8 6 Oeste 10 Oeste 0 -- -- 52
2020-01-15 18:00:00 12.3 6 Norte 15 Nordeste 0 -- -- 52
2020-01-15 17:00:00 14.1 7 Nordeste 14 Nordeste 0 -- -- 48
2020-01-15 16:00:00 16.7 5 Nordeste 12 Este 0 -- -- 42
2020-01-15 15:00:00 16.1 6 Sudeste 10 Sudeste 0 -- -- 41
2020-01-15 14:00:00 12.8 0 Calma 9 Norte 0 -- -- 48
2020-01-15 13:00:00 11 4 Nordeste 8 Norte 0 -- -- 54
2020-01-15 12:00:00 8.5 5 Norte 9 Nordeste 0 -- -- 58
2020-01-15 11:00:00 6 3 Norte 6 Sur 0 -- -- 67
2020-01-15 10:00:00 2.5 0 Calma 8 Oeste 0 -- -- 74
2020-01-15 09:00:00 1 5 Sur 9 Sur 0 -- -- 78
2020-01-15 08:00:00 -0.2 7 Sur 10 Sur 0 -- -- 80
2020-01-15 07:00:00 0.7 5 Sur 8 Sur 0 -- -- 78
2020-01-15 06:00:00 1.4 4 Sudoeste 8 Sur 0 -- -- 77
2020-01-15 05:00:00 1.5 6 Sur 9 Sur 0 -- -- 77
2020-01-15 04:00:00 1.6 6 Sur 9 Sur 0 -- -- 76
2020-01-15 03:00:00 2.4 7 Sur 9 Sudoeste 0 -- -- 73
2020-01-15 02:00:00 2.9 4 Sur 7 Sur 0 -- -- 72
2020-01-15 01:00:00 3.8 2 Sudoeste 11 Sur 0 -- -- 69
2020-01-15 00:00:00 3.9 8 Sur 11 Sur 0 -- -- 68
2020-01-14 23:00:00 5.1 6 Sudoeste 8 Sur 0 -- -- 64
2020-01-14 22:00:00 5.5 6 Sur 11 Sudoeste 0 -- -- 63
2020-01-14 21:00:00 6 6 Sur 8 Sur 0 -- -- 61
2020-01-14 20:00:00 7.3 0 Calma 11 Sur 0 -- -- 57
2020-01-14 19:00:00 9.1 6 Sur 10 Sudoeste 0 -- -- 49
2020-01-14 18:00:00 11.4 6 Sur 9 Sur 0 -- -- 42
2020-01-14 17:00:00 13.6 4 Sur 6 Sur 0 -- -- 35
2020-01-14 16:00:00 14.3 3 Sudeste 7 Este 0 -- -- 34
2020-01-14 15:00:00 14 3 Este 9 Nordeste 0 -- -- 35
2020-01-14 14:00:00 12.3 4 Nordeste 9 Nordeste 0 -- -- 37
2020-01-14 13:00:00 10.3 3 Noroeste 7 Noroeste 0 -- -- 37
2020-01-14 12:00:00 8.1 3 Norte 6 Noroeste 0 -- -- 48
2020-01-14 11:00:00 5.6 3 Este 6 Sudeste 0 -- -- 56
2020-01-14 10:00:00 3 0 Calma 10 Sur 0 -- -- 64
2020-01-14 09:00:00 -0.3 0 Calma 9 Sur 0 -- -- 75
2020-01-14 08:00:00 -1.5 2 Sudoeste 9 Sur 0 -- -- 79
2020-01-14 07:00:00 -1.3 7 Sur 9 Sur 0 -- -- 81
2020-01-14 06:00:00 -0.5 6 Sur 8 Sudoeste 0 -- -- 77
2020-01-14 05:00:00 1.3 0 Calma 5 Sudoeste 0 -- -- 69
2020-01-14 04:00:00 0.6 5 Sudoeste 11 Sur 0 -- -- 75
2020-01-14 03:00:00 1.5 5 Sudoeste 9 Sudoeste 0 -- -- 72
2020-01-14 02:00:00 1.9 7 Sur 11 Sur 0 -- -- 76
2020-01-14 01:00:00 3 5 Sudoeste 8 Sur 0 -- -- 73
2020-01-14 00:00:00 3.9 6 Sur 8 Sudoeste 0 -- -- 71
2020-01-13 23:00:00 4.4 6 Sur 10 Sur 0 -- -- 70
2020-01-13 22:00:00 4.9 3 Sur 12 Sudoeste 0 -- -- 70
2020-01-13 21:00:00 5.9 6 Sur 9 Sudoeste 0 -- -- 68
2020-01-13 20:00:00 7.6 4 Sudoeste 8 Sur 0 -- -- 60
2020-01-13 19:00:00 10.5 0 Calma 4 Sur 0 -- -- 49
2020-01-13 18:00:00 11 3 Noroeste 6 Este 0 -- -- 49
2020-01-13 17:00:00 13 3 Sudeste 7 Sudeste 0 -- -- 41
2020-01-13 16:00:00 13.8 3 Sudeste 6 Sudeste 0 -- -- 38
2020-01-13 15:00:00 13.2 4 Sudeste 7 Sur 0 -- -- 40
2020-01-13 14:00:00 12.4 3 Sudeste 6 Este 0 -- -- 37
2020-01-13 13:00:00 9.8 3 Nordeste 7 Noroeste 0 -- -- 49
2020-01-13 12:00:00 7.3 3 Nordeste 7 Noroeste 0 -- -- 54
2020-01-13 11:00:00 4.6 4 Noroeste 6 Oeste 0 -- -- 62
2020-01-13 10:00:00 2.2 0 Calma 9 Oeste 0 -- -- 72
2020-01-13 09:00:00 -1.1 4 Noroeste 8 Oeste 0 -- -- 81
2020-01-13 08:00:00 -1 2 Sur 6 Sur 0 -- -- 81
2020-01-13 07:00:00 -0.6 3 Sur 5 Sudoeste 0 -- -- 80
2020-01-13 06:00:00 -0.5 3 Sur 9 Sur 0 -- -- 79
2020-01-13 05:00:00 0.7 4 Sudoeste 8 Oeste 0 -- -- 75
2020-01-13 04:00:00 1.5 4 Oeste 7 Oeste 0 -- -- 73
2020-01-13 03:00:00 1.4 4 Sudoeste 6 Sudoeste 0 -- -- 74
2020-01-13 02:00:00 1.9 6 Sur 9 Sur 0 -- -- 72
2020-01-13 01:00:00 2.6 2 Sur 10 Sur 0 -- -- 73
2020-01-13 00:00:00 3 5 Sur 9 Sur 0 -- -- 71
2020-01-12 23:00:00 4.4 6 Sur 15 Sur 0 -- -- 64
2020-01-12 22:00:00 4.9 10 Sur 16 Sur 0 -- -- 63
2020-01-12 21:00:00 6.2 5 Sur 9 Sur 0 -- -- 58
2020-01-12 20:00:00 8.7 6 Sudoeste 10 Sur 0 -- -- 47
2020-01-12 19:00:00 11.2 0 Calma 7 Nordeste 0 -- -- 40
2020-01-12 18:00:00 12.5 4 Nordeste 14 Nordeste 0 -- -- 37
2020-01-12 17:00:00 14.4 8 Nordeste 20 Este 0 -- -- 32
2020-01-12 16:00:00 15.9 9 Nordeste 20 Norte 0 -- -- 30
2020-01-12 15:00:00 16 4 Norte 9 Este 0 -- -- 33
2020-01-12 14:00:00 14.9 4 Nordeste 10 Nordeste 0 -- -- 37
2020-01-12 13:00:00 12.1 4 Nordeste 8 Nordeste 0 -- -- 47
2020-01-12 12:00:00 10.2 0 Calma 6 Oeste 0 -- -- 53
2020-01-12 11:00:00 6.7 3 Noroeste 6 Oeste 0 -- -- 63
2020-01-12 10:00:00 3.3 2 Sur 7 Sur 0 -- -- 72
2020-01-12 09:00:00 0.7 5 Sur 12 Sudoeste 0 -- -- 82
2020-01-12 08:00:00 -0.3 7 Sur 9 Sur 0 -- -- 81
2020-01-12 07:00:00 0.3 5 Sur 7 Sur 0 -- -- 82
2020-01-12 06:00:00 0.9 5 Sur 8 Sur 0 -- -- 81
2020-01-12 05:00:00 1.1 6 Sur 7 Sur 0 -- -- 79
2020-01-12 04:00:00 2.1 4 Sur 7 Sudoeste 0 -- -- 76
2020-01-12 03:00:00 3.6 3 Sudoeste 8 Sudoeste 0 -- -- 71
2020-01-12 02:00:00 3.3 5 Sudoeste 6 Sur 0 -- -- 73
2020-01-12 01:00:00 3.6 3 Sudoeste 5 Sur 0 -- -- 73
2020-01-12 00:00:00 3.7 4 Sur 8 Sudoeste 0 -- -- 73
2020-01-11 23:00:00 4 6 Sur 10 Sur 0 -- -- 73
2020-01-11 22:00:00 5.3 2 Sur 8 Sudoeste 0 -- -- 71
2020-01-11 21:00:00 6.2 6 Sur 12 Sudeste 0 -- -- 68
2020-01-11 20:00:00 7.2 7 Sudeste 10 Sudeste 0 -- -- 65
2020-01-11 19:00:00 10.9 4 Sudoeste 9 Sudoeste 0 -- -- 49
2020-01-11 18:00:00 12.1 0 Calma 10 Nordeste 0 -- -- 45
2020-01-11 17:00:00 13.4 6 Nordeste 14 Norte 0 -- -- 43
2020-01-11 16:00:00 14.6 3 Nordeste 11 Nordeste 0 -- -- 40
2020-01-11 15:00:00 14 6 Norte 15 Nordeste 0 -- -- 42
2020-01-11 14:00:00 13.5 8 Nordeste 18 Nordeste 0 -- -- 45
2020-01-11 13:00:00 12.7 5 Norte 11 Norte 0 -- -- 49
2020-01-11 12:00:00 11.2 5 Nordeste 10 Nordeste 0 -- -- 54
2020-01-11 11:00:00 9 4 Nordeste 10 Norte 0 -- -- 59
2020-01-11 10:00:00 7.3 4 Noroeste 9 Noroeste 0 -- -- 65
2020-01-11 09:00:00 5.7 6 Noroeste 11 Noroeste 0 -- -- 69
2020-01-11 08:00:00 6.1 5 Norte 9 Norte 0 -- -- 68
2020-01-11 07:00:00 6.3 4 Noroeste 8 Noroeste 0 -- -- 68
2020-01-11 06:00:00 6.5 0 Calma 6 Nordeste 0 -- -- 68
2020-01-11 05:00:00 6.5 3 Norte 14 Noroeste 0 -- -- 67
2020-01-11 04:00:00 7 5 Noroeste 12 Noroeste 0 -- -- 64
2020-01-11 03:00:00 6 5 Norte 15 Noroeste 0 -- -- 68
2020-01-11 02:00:00 4.7 6 Oeste 12 Noroeste 0 -- -- 75
2020-01-11 01:00:00 6.4 5 Sudoeste 11 Oeste 0 -- -- 69
2020-01-11 00:00:00 6.5 3 Nordeste 12 Oeste 0 -- -- 72
2020-01-10 23:00:00 7.3 8 Oeste 12 Oeste 0 -- -- 71
2020-01-10 22:00:00 7.8 8 Norte 12 Noroeste 0 -- -- 69
2020-01-10 21:00:00 7.5 4 Noroeste 13 Nordeste 0 -- -- 66
2020-01-10 20:00:00 8.6 0 Calma 16 Oeste 0 -- -- 61
2020-01-10 19:00:00 9.6 12 Oeste 17 Oeste 0 -- -- 50
2020-01-10 18:00:00 11.7 12 Noroeste 30 Noroeste 0 -- -- 43
2020-01-10 17:00:00 13.1 16 Norte 28 Norte 0 -- -- 42
2020-01-10 16:00:00 13.7 13 Norte 31 Norte 0 -- -- 44
2020-01-10 15:00:00 14 14 Norte 30 Noroeste 0 -- -- 44
2020-01-10 14:00:00 13.4 15 Norte 34 Noroeste 0 -- -- 48
2020-01-10 13:00:00 13.3 17 Norte 30 Norte 0 -- -- 51
2020-01-10 12:00:00 11 5 Norte 14 Noroeste 0 -- -- 68
2020-01-10 11:00:00 5.3 5 Sudoeste 9 Sudeste 0 -- -- 82
2020-01-10 10:00:00 4.2 2 Sur 8 Sur 0 -- -- 86
2020-01-10 09:00:00 2.7 0 Calma 6 Sudoeste 0 -- -- 91
2020-01-10 08:00:00 2.3 3 Sur 10 Sur 0 -- -- 91
2020-01-10 07:00:00 1.9 6 Sur 10 Sur 0 -- -- 91
2020-01-10 06:00:00 2.3 7 Sur 11 Sur 0 -- -- 90
2020-01-10 05:00:00 3.1 5 Sudoeste 8 Sudoeste 0 -- -- 90
2020-01-10 04:00:00 3.5 4 Sur 8 Sur 0 -- -- 89
2020-01-10 03:00:00 4.5 5 Sur 8 Sur 0 -- -- 88
2020-01-10 02:00:00 4.7 6 Sur 9 Sudoeste 0 -- -- 86
2020-01-10 01:00:00 5.6 3 Sur 7 Sur 0 -- -- 85
2020-01-10 00:00:00 6.8 7 Oeste 15 Oeste 0 -- -- 85
2020-01-09 23:00:00 6.1 6 Noroeste 9 Noroeste 0 -- -- 85
2020-01-09 22:00:00 7.3 5 Sur 12 Sur 0 -- -- 82
2020-01-09 21:00:00 7.9 8 Sur 12 Sur 0 -- -- 79
2020-01-09 20:00:00 9.5 3 Sur 12 Oeste 0 -- -- 74
2020-01-09 19:00:00 10.4 4 Sur 6 Sur 0 -- -- 71
2020-01-09 18:00:00 11.4 0 Calma 5 Nordeste 0 -- -- 67
2020-01-09 17:00:00 12.6 2 Nordeste 6 Nordeste 0 -- -- 62
2020-01-09 16:00:00 13.6 3 Nordeste 9 Este 0 -- -- 58
2020-01-09 15:00:00 13.6 3 Nordeste 10 Este 0 -- -- 57
2020-01-09 14:00:00 13.1 3 Nordeste 8 Este 0 -- -- 59
2020-01-09 13:00:00 11.7 3 Este 8 Este 0 -- -- 62
2020-01-09 12:00:00 9.3 4 Noroeste 10 Noroeste 0 -- -- 68
2020-01-09 11:00:00 6.9 8 Noroeste 10 Noroeste 0 -- -- 73
2020-01-09 10:00:00 4.3 2 Sudoeste 6 Sur 0 -- -- 84
2020-01-09 09:00:00 2.9 5 Sur 8 Sudeste 0 -- -- 85
2020-01-09 08:00:00 2.5 2 Sur 9 Sur 0 -- -- 88
2020-01-09 07:00:00 2.3 5 Sur 9 Sudoeste 0 -- -- 85
2020-01-09 06:00:00 2.5 6 Sur 8 Sur 0 -- -- 86
2020-01-09 05:00:00 2.7 3 Sudoeste 7 Sur 0 -- -- 84
2020-01-09 04:00:00 2.9 4 Sudoeste 8 Sur 0 -- -- 85
2020-01-09 03:00:00 2.8 6 Sur 7 Sudoeste 0 -- -- 83
2020-01-09 02:00:00 3.2 5 Sur 7 Sur 0 -- -- 82
2020-01-09 01:00:00 3.8 2 Sur 4 Sur 0 -- -- 81
2020-01-09 00:00:00 4.7 5 Sur 11 Sur 0 -- -- 77
2020-01-08 23:00:00 5.1 8 Sur 13 Sur 0 -- -- 78
2020-01-08 22:00:00 5.6 6 Sur 11 Sur 0 -- -- 76
2020-01-08 21:00:00 7.9 5 Sur 7 Sur 0 -- -- 70
2020-01-08 20:00:00 8.9 5 Sur 12 Sudeste 0 -- -- 65
2020-01-08 19:00:00 10.3 8 Sudeste 13 Sudeste 0 -- -- 62
2020-01-08 18:00:00 11.9 7 Sudeste 19 Sudeste 0 -- -- 56
2020-01-08 17:00:00 13.7 10 Sudeste 19 Sudeste 0 -- -- 51
2020-01-08 16:00:00 15.7 9 Sudeste 16 Sudeste 0 -- -- 43
2020-01-08 15:00:00 16.1 6 Este 14 Sudeste 0 -- -- 38
2020-01-08 14:00:00 15.8 5 Sudeste 13 Nordeste 0 -- -- 37
2020-01-08 13:00:00 14.5 3 Nordeste 8 Este 0 -- -- 35
2020-01-08 12:00:00 11.8 4 Nordeste 7 Este 0 -- -- 51
2020-01-08 11:00:00 7.9 4 Sur 6 Sur 0 -- -- 61
2020-01-08 10:00:00 4.2 5 Sur 11 Sudeste 0 -- -- 69
2020-01-08 09:00:00 2.1 4 Sudoeste 9 Sur 0 -- -- 79
2020-01-08 08:00:00 0.5 5 Sudoeste 9 Sudoeste 0 -- -- 82
2020-01-08 07:00:00 0.7 4 Sur 9 Sudoeste 0 -- -- 80
2020-01-08 06:00:00 1.2 8 Sur 10 Sur 0 -- -- 82
2020-01-08 05:00:00 1.6 4 Sudoeste 9 Sudoeste 0 -- -- 81
2020-01-08 04:00:00 1.9 6 Sudoeste 9 Sur 0 -- -- 82
2020-01-08 03:00:00 2 5 Sudoeste 9 Sur 0 -- -- 82
2020-01-08 02:00:00 2.6 7 Sudoeste 9 Sur 0 -- -- 81
2020-01-08 01:00:00 3.3 7 Sur 12 Sur 0 -- -- 79
2020-01-08 00:00:00 3.5 7 Sur 9 Sur 0 -- -- 78
2020-01-07 23:00:00 4.5 6 Sur 9 Sur 0 -- -- 75
2020-01-07 22:00:00 5.4 6 Sur 10 Sudoeste 0 -- -- 73
2020-01-07 21:00:00 6.7 7 Sur 9 Sudoeste 0 -- -- 72
2020-01-07 20:00:00 9.7 0 Calma 5 Nordeste 0 -- -- 64
2020-01-07 19:00:00 10.6 2 Nordeste 10 Este 0 -- -- 60
2020-01-07 18:00:00 11.9 5 Nordeste 12 Nordeste 0 -- -- 52
2020-01-07 17:00:00 14.3 3 Nordeste 10 Este 0 -- -- 47
2020-01-07 16:00:00 16.6 3 Este 5 Este 0 -- -- 32
2020-01-07 15:00:00 15.7 0 Calma 6 Nordeste 0 -- -- 33
2020-01-07 14:00:00 13.9 4 Nordeste 7 Nordeste 0 -- -- 40
2020-01-07 13:00:00 12.4 2 Nordeste 7 Este 0 -- -- 41
2020-01-07 12:00:00 10.5 3 Sudeste 5 Sudeste 0 -- -- 50
2020-01-07 11:00:00 6.7 3 Norte 5 Nordeste 0 -- -- 62
2020-01-07 10:00:00 4.1 0 Calma 9 Sur 0 -- -- 72
2020-01-07 09:00:00 1.1 5 Sur 10 Sudoeste 0 -- -- 82
2020-01-07 08:00:00 1 5 Sudoeste 10 Sur 0 -- -- 81
2020-01-07 07:00:00 1.5 3 Sur 10 Sur 0 -- -- 81
2020-01-07 06:00:00 0.4 5 Sur 10 Sur 0 -- -- 84
2020-01-07 05:00:00 1.4 7 Sur 11 Sur 0 -- -- 82
2020-01-07 04:00:00 2.1 2 Oeste 8 Sur 0 -- -- 83
2020-01-07 03:00:00 1.6 7 Sur 9 Sur 0 -- -- 83
2020-01-07 02:00:00 2.7 5 Sur 9 Sur 0 -- -- 80
2020-01-07 01:00:00 3.8 0 Calma 5 Sudoeste 0 -- -- 77
2020-01-07 00:00:00 3.6 6 Sur 10 Sur 0 -- -- 79
2020-01-06 23:00:00 4.4 7 Sur 9 Sur 0 -- -- 77
2020-01-06 22:00:00 5.2 6 Sur 9 Sur 0 -- -- 77
2020-01-06 21:00:00 5.8 5 Sur 9 Sur 0 -- -- 75
2020-01-06 20:00:00 7.9 3 Sudeste 6 Sur 0 -- -- 67
2020-01-06 19:00:00 10.2 5 Sur 8 Sur 0 -- -- 57
2020-01-06 18:00:00 11.5 0 Calma 7 Nordeste 0 -- -- 54
2020-01-06 17:00:00 12.2 4 Nordeste 10 Nordeste 0 -- -- 55
2020-01-06 16:00:00 13.7 5 Nordeste 10 Nordeste 0 -- -- 50
2020-01-06 15:00:00 13.3 6 Norte 10 Nordeste 0 -- -- 51
2020-01-06 14:00:00 12.5 4 Nordeste 9 Este 0 -- -- 52
2020-01-06 13:00:00 11.7 2 Este 6 Norte 0 -- -- 48
2020-01-06 12:00:00 8.7 3 Nordeste 6 Norte 0 -- -- 59
2020-01-06 11:00:00 6.4 2 Nordeste 4 Noroeste 0 -- -- 65
2020-01-06 10:00:00 3.5 0 Calma 6 Sur 0 -- -- 75